Time;durP1;ratioP1;P1;durP2;ratioP2;P2;SDS_P1;SDS_P2;PMS_P1;PMS_P2;Temp;Humidity;BMP_temperature;BMP_pressure;BME280_temperature;BME280_humidity;BME280_pressure;Samples;Min_cycle;Max_cycle;Signal;HPM_P1;HPM_P2
2022/12/14 00:01:13;;;;;;;13.13;7.18;;;;;;;;;;5063728;28;20411;-86
2022/12/14 00:03:38;;;;;;;6.38;5.80;;;;;;;;;;5062037;28;20032;-85
2022/12/14 00:06:17;;;;;;;7.43;5.60;;;;;;;;;;5085077;28;20033;-84
2022/12/14 00:08:43;;;;;;;9.48;6.32;;;;;;;;;;5085052;28;20035;-86
2022/12/14 00:11:13;;;;;;;13.80;7.38;;;;;;;;;;5061036;28;20049;-86
2022/12/14 00:13:39;;;;;;;4.22;3.78;;;;;;;;;;5085278;28;20016;-86
2022/12/14 00:16:11;;;;;;;7.78;5.75;;;;;;;;;;5060922;28;20527;-86
2022/12/14 00:18:37;;;;;;;7.93;5.85;;;;;;;;;;5081102;28;20024;-86
2022/12/14 00:21:08;;;;;;;9.80;4.25;;;;;;;;;;5061703;28;20028;-86
2022/12/14 00:23:34;;;;;;;8.25;5.40;;;;;;;;;;5083199;28;20024;-87
2022/12/14 00:26:27;;;;;;;6.95;4.43;;;;;;;;;;5077286;28;20028;-85
2022/12/14 00:28:54;;;;;;;20.83;8.25;;;;;;;;;;5081055;28;20389;-85
2022/12/14 00:31:21;;;;;;;3.13;2.78;;;;;;;;;;5061389;28;20028;-86
2022/12/14 00:33:49;;;;;;;4.57;3.75;;;;;;;;;;5065522;28;20566;-86
2022/12/14 00:36:14;;;;;;;13.40;5.30;;;;;;;;;;5093889;28;20051;-85
2022/12/14 00:38:40;;;;;;;8.25;5.03;;;;;;;;;;5076347;28;20036;-85
2022/12/14 00:41:06;;;;;;;10.50;4.72;;;;;;;;;;5095364;28;20031;-85
2022/12/14 00:43:31;;;;;;;8.07;3.42;;;;;;;;;;5077958;28;20028;-85
2022/12/14 00:45:57;;;;;;;4.43;2.95;;;;;;;;;;5098255;28;20502;-86
2022/12/14 00:48:24;;;;;;;5.22;4.22;;;;;;;;;;5078346;28;20067;-85
2022/12/14 00:50:51;;;;;;;14.75;5.70;;;;;;;;;;5080592;28;20020;-85
2022/12/14 00:53:17;;;;;;;5.53;4.57;;;;;;;;;;5098244;28;20039;-83
2022/12/14 00:55:44;;;;;;;6.05;3.45;;;;;;;;;;5098176;28;20023;-85
2022/12/14 00:58:12;;;;;;;10.43;4.03;;;;;;;;;;5077854;28;20388;-85
2022/12/14 01:00:38;;;;;;;8.57;4.53;;;;;;;;;;5079377;28;20040;-86
2022/12/14 01:03:04;;;;;;;6.88;3.90;;;;;;;;;;5097568;28;20024;-85
2022/12/14 01:05:32;;;;;;;8.52;4.75;;;;;;;;;;5097953;28;20024;-86
2022/12/14 01:07:57;;;;;;;7.07;4.82;;;;;;;;;;5096160;28;20028;-86
2022/12/14 01:10:23;;;;;;;8.27;6.00;;;;;;;;;;5098755;28;20028;-87
2022/12/14 01:12:48;;;;;;;5.82;4.63;;;;;;;;;;5080318;28;20084;-88
2022/12/14 01:15:13;;;;;;;5.00;3.33;;;;;;;;;;5097364;28;20081;-87
2022/12/14 01:17:39;;;;;;;3.78;3.42;;;;;;;;;;5098669;28;20016;-86
2022/12/14 01:20:05;;;;;;;11.02;5.22;;;;;;;;;;5097837;28;20418;-85
2022/12/14 01:22:30;;;;;;;5.75;4.30;;;;;;;;;;5076087;28;20492;-83
2022/12/14 01:24:56;;;;;;;6.40;5.68;;;;;;;;;;5097443;28;20024;-86
2022/12/14 01:27:21;;;;;;;4.43;3.97;;;;;;;;;;5096693;28;20124;-86
2022/12/14 01:29:47;;;;;;;7.72;4.97;;;;;;;;;;5078809;28;20388;-86
2022/12/14 01:32:12;;;;;;;4.75;4.28;;;;;;;;;;5097560;28;20035;-85
2022/12/14 01:34:38;;;;;;;13.40;6.25;;;;;;;;;;5094890;28;20094;-86
2022/12/14 01:37:03;;;;;;;7.45;4.82;;;;;;;;;;5095781;28;20031;-85
2022/12/14 01:39:29;;;;;;;7.25;4.45;;;;;;;;;;5097645;28;20051;-85
2022/12/14 01:41:54;;;;;;;3.65;3.28;;;;;;;;;;5094366;28;20032;-86
2022/12/14 01:44:19;;;;;;;12.15;7.72;;;;;;;;;;5094731;28;20119;-86
2022/12/14 01:47:02;;;;;;;5.18;4.28;;;;;;;;;;5077741;28;20073;-85
2022/12/14 01:49:33;;;;;;;3.80;3.20;;;;;;;;;;5095242;28;20089;-86
2022/12/14 01:52:24;;;;;;;6.70;3.90;;;;;;;;;;5095506;28;20030;-85
2022/12/14 01:55:09;;;;;;;3.67;3.22;;;;;;;;;;5093666;28;20024;-87
2022/12/14 01:57:40;;;;;;;3.88;3.25;;;;;;;;;;5072836;28;20021;-84
2022/12/14 02:00:09;;;;;;;4.07;3.65;;;;;;;;;;5078880;28;20042;-85
2022/12/14 02:02:37;;;;;;;5.05;3.28;;;;;;;;;;5076718;28;20375;-86
2022/12/14 02:05:06;;;;;;;4.32;3.67;;;;;;;;;;5095442;28;20032;-87
2022/12/14 02:07:32;;;;;;;5.35;4.25;;;;;;;;;;5096826;28;20508;-85
2022/12/14 02:10:00;;;;;;;4.38;3.47;;;;;;;;;;5078075;28;20106;-86
2022/12/14 02:12:30;;;;;;;5.32;3.10;;;;;;;;;;5095324;28;20073;-85
2022/12/14 02:14:57;;;;;;;5.18;3.70;;;;;;;;;;5078164;28;20036;-84
2022/12/14 02:17:23;;;;;;;6.70;3.42;;;;;;;;;;5095670;28;20024;-86
2022/12/14 02:19:49;;;;;;;4.80;3.50;;;;;;;;;;5096258;28;20023;-85
2022/12/14 02:22:35;;;;;;;4.00;3.05;;;;;;;;;;5076502;28;20491;-86
2022/12/14 02:25:38;;;;;;;2.65;2.33;;;;;;;;;;5092736;28;20511;-85
2022/12/14 02:28:21;;;;;;;4.05;3.67;;;;;;;;;;5095221;28;20071;-83
2022/12/14 02:31:06;;;;;;;2.28;1.83;;;;;;;;;;5077006;28;20046;-83
2022/12/14 02:33:49;;;;;;;3.08;2.38;;;;;;;;;;5077453;28;20399;-84
2022/12/14 02:36:15;;;;;;;4.07;2.78;;;;;;;;;;5095319;28;20048;-84
2022/12/14 02:38:49;;;;;;;6.47;3.03;;;;;;;;;;5094838;28;20032;-84
2022/12/14 02:41:37;;;;;;;3.90;2.60;;;;;;;;;;5093599;28;20121;-85
2022/12/14 02:44:32;;;;;;;6.35;2.30;;;;;;;;;;5094403;28;20024;-84
2022/12/14 02:47:16;;;;;;;1.92;1.30;;;;;;;;;;5095208;28;20036;-84
2022/12/14 02:49:59;;;;;;;3.25;1.55;;;;;;;;;;5094717;28;20024;-83
2022/12/14 02:52:46;;;;;;;3.45;2.78;;;;;;;;;;5095229;28;20020;-83
2022/12/14 02:55:24;;;;;;;2.13;1.75;;;;;;;;;;5074584;28;20038;-83
2022/12/14 02:58:00;;;;;;;2.88;2.33;;;;;;;;;;5094992;28;20028;-83
2022/12/14 03:00:28;;;;;;;1.88;1.60;;;;;;;;;;5074578;28;20032;-84
2022/12/14 03:02:54;;;;;;;3.17;2.70;;;;;;;;;;5095059;28;20020;-82
2022/12/14 03:05:20;;;;;;;4.38;2.40;;;;;;;;;;5094468;28;20073;-83
2022/12/14 03:07:48;;;;;;;3.05;2.40;;;;;;;;;;5075858;28;20028;-83
2022/12/14 03:10:35;;;;;;;2.90;2.30;;;;;;;;;;5095063;28;20085;-84
2022/12/14 03:13:19;;;;;;;2.20;1.83;;;;;;;;;;5093288;28;20032;-84
2022/12/14 03:16:15;;;;;;;1.67;1.58;;;;;;;;;;5074338;28;20642;-84
2022/12/14 03:18:47;;;;;;;2.83;1.80;;;;;;;;;;5094117;28;20023;-83
2022/12/14 03:21:18;;;;;;;3.10;2.45;;;;;;;;;;5092554;28;20153;-84
2022/12/14 03:23:47;;;;;;;2.08;1.98;;;;;;;;;;5094451;28;20020;-83
2022/12/14 03:26:16;;;;;;;2.03;1.70;;;;;;;;;;5094281;28;20489;-85
2022/12/14 03:28:59;;;;;;;12.27;2.83;;;;;;;;;;5076212;28;20028;-85
2022/12/14 03:31:31;;;;;;;3.80;2.17;;;;;;;;;;5074624;28;20050;-85
2022/12/14 03:33:58;;;;;;;2.95;2.67;;;;;;;;;;5092956;28;20027;-85
2022/12/14 03:36:42;;;;;;;7.60;3.58;;;;;;;;;;5083350;28;20044;-85
2022/12/14 03:39:13;;;;;;;2.60;2.40;;;;;;;;;;5063789;28;20024;-83
2022/12/14 03:41:45;;;;;;;3.80;2.55;;;;;;;;;;5081505;28;20027;-84
2022/12/14 03:44:27;;;;;;;2.78;2.58;;;;;;;;;;5062363;28;20023;-84
2022/12/14 03:47:22;;;;;;;4.85;4.30;;;;;;;;;;5078220;28;20029;-84
2022/12/14 03:50:00;;;;;;;2.33;2.15;;;;;;;;;;5059043;28;20036;-85
2022/12/14 03:52:34;;;;;;;3.38;2.65;;;;;;;;;;5081586;28;20048;-84
2022/12/14 03:55:19;;;;;;;2.60;1.60;;;;;;;;;;5065429;28;20027;-85
2022/12/14 03:58:08;;;;;;;5.07;2.20;;;;;;;;;;5081773;28;20032;-84
2022/12/14 04:00:49;;;;;;;3.28;2.55;;;;;;;;;;5087971;28;20024;-85
2022/12/14 04:03:27;;;;;;;2.83;2.08;;;;;;;;;;5078310;28;20035;-84
2022/12/14 04:06:06;;;;;;;5.70;4.28;;;;;;;;;;5081564;28;20031;-83
2022/12/14 04:08:38;;;;;;;2.30;1.73;;;;;;;;;;5080861;28;20047;-84
2022/12/14 04:19:48;;;;;;;2.80;2.58;;;;;;;;;;5084640;28;20035;-85
2022/12/14 04:22:21;;;;;;;2.65;1.90;;;;;;;;;;5079694;28;20031;-83
2022/12/14 04:28:07;;;;;;;1.20;1.10;;;;;;;;;;5082395;28;20565;-84
2022/12/14 04:30:36;;;;;;;3.80;2.28;;;;;;;;;;5077713;28;20500;-83
2022/12/14 04:35:54;;;;;;;7.28;2.00;;;;;;;;;;5092076;28;20174;-84
2022/12/14 04:38:27;;;;;;;2.88;2.42;;;;;;;;;;5092806;28;20031;-82
2022/12/14 04:41:01;;;;;;;1.98;1.70;;;;;;;;;;5094568;28;20039;-85
2022/12/14 04:43:30;;;;;;;4.47;2.38;;;;;;;;;;5073222;28;20040;-85
2022/12/14 04:46:20;;;;;;;3.15;1.95;;;;;;;;;;5092494;28;20052;-84
2022/12/14 04:49:02;;;;;;;;;;;;;;;;;;5093054;28;20139;-84
2022/12/14 04:51:46;;;;;;;2.05;1.77;;;;;;;;;;5074944;28;19916;-85
2022/12/14 04:54:20;;;;;;;4.15;2.72;;;;;;;;;;5088580;28;20031;-85
2022/12/14 04:56:50;;;;;;;2.92;1.80;;;;;;;;;;5092420;28;20044;-84
2022/12/14 04:59:15;;;;;;;3.60;3.28;;;;;;;;;;5093194;28;20494;-85
2022/12/14 05:02:05;;;;;;;2.50;2.33;;;;;;;;;;5088771;28;20036;-84
2022/12/14 05:04:33;;;;;;;;;;;;;;;;;;5090961;28;20027;-85
2022/12/14 05:07:41;;;;;;;5.82;2.03;;;;;;;;;;5074313;28;19916;-87
2022/12/14 05:10:31;;;;;;;3.75;2.67;;;;;;;;;;5092055;28;20054;-85
2022/12/14 05:13:15;;;;;;;8.80;3.20;;;;;;;;;;5074435;28;20427;-84
2022/12/14 05:15:55;;;;;;;3.17;1.83;;;;;;;;;;5093737;28;20464;-83
2022/12/14 05:18:22;;;;;;;4.65;3.22;;;;;;;;;;5091453;28;20573;-83
2022/12/14 05:20:47;;;;;;;6.35;3.63;;;;;;;;;;5093320;28;20551;-84
2022/12/14 05:23:14;;;;;;;5.63;3.47;;;;;;;;;;5091762;28;20031;-84
2022/12/14 05:25:39;;;;;;;10.75;4.88;;;;;;;;;;5072981;28;20020;-83
2022/12/14 05:28:05;;;;;;;3.95;2.83;;;;;;;;;;5093843;28;20024;-82
2022/12/14 05:30:31;;;;;;;3.92;3.15;;;;;;;;;;5077216;28;20036;-83
2022/12/14 05:32:57;;;;;;;5.45;3.28;;;;;;;;;;5077281;28;20479;-82
2022/12/14 05:35:23;;;;;;;7.60;3.58;;;;;;;;;;5076277;28;20075;-83
2022/12/14 05:37:48;;;;;;;5.32;3.08;;;;;;;;;;5094438;28;20027;-83
2022/12/14 05:40:13;;;;;;;3.60;2.67;;;;;;;;;;5076943;28;20104;-84
2022/12/14 05:42:39;;;;;;;4.53;3.08;;;;;;;;;;5093137;28;20476;-83
2022/12/14 05:45:05;;;;;;;2.85;2.20;;;;;;;;;;5092462;28;20101;-84
2022/12/14 05:47:30;;;;;;;6.78;3.00;;;;;;;;;;5076329;28;20031;-84
2022/12/14 05:49:56;;;;;;;3.80;2.63;;;;;;;;;;5093849;28;20095;-83
2022/12/14 05:52:24;;;;;;;2.97;2.65;;;;;;;;;;5091269;28;20102;-84
2022/12/14 05:54:50;;;;;;;3.05;2.67;;;;;;;;;;5094042;28;20038;-83
2022/12/14 05:57:15;;;;;;;3.33;2.88;;;;;;;;;;5094502;28;20020;-83
2022/12/14 05:59:41;;;;;;;6.60;2.85;;;;;;;;;;5093055;28;20056;-84
2022/12/14 06:02:06;;;;;;;4.22;2.88;;;;;;;;;;5094212;28;20623;-84
2022/12/14 06:04:31;;;;;;;2.63;1.90;;;;;;;;;;5094160;28;20023;-83
2022/12/14 06:06:57;;;;;;;5.38;2.17;;;;;;;;;;5094669;28;20028;-84
2022/12/14 06:09:22;;;;;;;3.67;2.15;;;;;;;;;;5094448;28;20532;-85
2022/12/14 06:11:48;;;;;;;1.45;1.35;;;;;;;;;;5094648;28;20020;-85
2022/12/14 06:14:15;;;;;;;1.63;1.52;;;;;;;;;;5093958;28;20070;-83
2022/12/14 06:16:44;;;;;;;2.47;2.28;;;;;;;;;;5093133;28;20043;-83
2022/12/14 09:56:16;;;;;;;4.57;3.45;;;;;;;;;;5076406;28;20391;-85
2022/12/14 09:58:52;;;;;;;6.05;4.32;;;;;;;;;;5074567;28;20033;-83
2022/12/14 10:01:23;;;;;;;4.43;2.83;;;;;;;;;;5074556;28;20772;-86
2022/12/14 10:04:24;;;;;;;4.40;4.00;;;;;;;;;;5075559;28;20025;-85
2022/12/14 10:06:57;;;;;;;6.18;3.28;;;;;;;;;;5076223;28;20128;-84
2022/12/14 10:09:41;;;;;;;6.53;2.92;;;;;;;;;;5078001;28;20024;-86
2022/12/14 10:12:22;;;;;;;3.67;2.95;;;;;;;;;;5072837;28;20409;-85
2022/12/14 10:15:06;;;;;;;4.15;2.75;;;;;;;;;;5075505;28;20048;-86
2022/12/14 10:17:54;;;;;;;6.70;4.65;;;;;;;;;;5081421;28;20119;-85
2022/12/14 10:20:41;;;;;;;4.72;3.65;;;;;;;;;;5068682;28;20033;-86
2022/12/14 10:23:13;;;;;;;5.00;3.28;;;;;;;;;;5076162;28;20388;-88
2022/12/14 10:25:39;;;;;;;4.22;3.42;;;;;;;;;;5080415;28;20024;-86
2022/12/14 10:28:16;;;;;;;11.00;4.78;;;;;;;;;;5078623;28;20032;-86
2022/12/14 10:30:43;;;;;;;6.90;3.92;;;;;;;;;;5075770;28;20024;-85
2022/12/14 10:33:25;;;;;;;4.22;3.20;;;;;;;;;;5076929;28;20020;-86
2022/12/14 10:35:53;;;;;;;4.82;3.63;;;;;;;;;;5072987;28;20073;-84
2022/12/14 10:39:00;;;;;;;4.50;2.53;;;;;;;;;;5078436;28;20040;-84
2022/12/14 10:41:55;;;;;;;3.03;2.38;;;;;;;;;;5070677;28;20118;-85
2022/12/14 10:44:45;;;;;;;7.55;3.65;;;;;;;;;;5080171;28;20024;-85
2022/12/14 10:47:15;;;;;;;4.50;2.97;;;;;;;;;;5078121;28;20503;-86
2022/12/14 10:49:43;;;;;;;;;;;;;;;;;;5075287;28;20024;-85
2022/12/14 10:52:19;;;;;;;4.45;3.92;;;;;;;;;;5091256;28;19919;-86
2022/12/14 10:54:47;;;;;;;5.80;4.50;;;;;;;;;;5077485;28;20056;-86
2022/12/14 10:57:21;;;;;;;4.68;3.15;;;;;;;;;;5078549;28;20032;-84
2022/12/14 10:59:47;;;;;;;4.30;2.78;;;;;;;;;;5075171;28;20047;-84
2022/12/14 11:02:20;;;;;;;5.05;3.85;;;;;;;;;;5074400;28;20025;-85
2022/12/14 11:04:45;;;;;;;5.32;4.07;;;;;;;;;;5075520;28;20024;-84
2022/12/14 11:07:13;;;;;;;4.05;3.25;;;;;;;;;;5064987;28;20033;-84
2022/12/14 11:09:39;;;;;;;7.00;4.60;;;;;;;;;;5061464;28;20033;-84
2022/12/14 11:12:14;;;;;;;7.18;3.97;;;;;;;;;;5063272;28;20040;-84
2022/12/14 11:14:59;;;;;;;3.80;2.92;;;;;;;;;;5057303;28;20024;-84
2022/12/14 11:17:37;;;;;;;3.45;2.80;;;;;;;;;;5056743;28;20032;-84
2022/12/14 11:20:06;;;;;;;5.43;1.92;;;;;;;;;;5063268;28;20032;-83
2022/12/14 11:22:55;;;;;;;8.45;3.47;;;;;;;;;;5060615;28;20028;-85
2022/12/14 11:25:42;;;;;;;2.92;2.25;;;;;;;;;;5053048;28;20558;-83
2022/12/14 11:28:25;;;;;;;7.10;3.22;;;;;;;;;;5062003;28;20032;-85
2022/12/14 11:31:02;;;;;;;4.85;2.92;;;;;;;;;;5063763;28;20068;-82
2022/12/14 11:33:44;;;;;;;1.75;1.60;;;;;;;;;;5060664;28;20469;-85
2022/12/14 11:36:31;;;;;;;11.63;3.60;;;;;;;;;;5054817;28;20053;-83
2022/12/14 11:38:58;;;;;;;4.90;3.33;;;;;;;;;;5063664;28;20086;-83
2022/12/14 11:41:35;;;;;;;4.00;3.60;;;;;;;;;;5061920;28;20476;-82
2022/12/14 11:44:04;;;;;;;6.50;2.85;;;;;;;;;;5057355;28;20043;-85
2022/12/14 11:46:53;;;;;;;4.13;3.38;;;;;;;;;;5061340;28;20037;-83
2022/12/14 11:49:22;;;;;;;3.47;2.88;;;;;;;;;;5058046;28;20043;-84
2022/12/14 11:51:56;;;;;;;3.58;3.28;;;;;;;;;;5060395;28;20083;-84
2022/12/14 11:54:21;;;;;;;6.07;2.95;;;;;;;;;;5061959;28;20041;-82
2022/12/14 11:56:55;;;;;;;5.97;2.83;;;;;;;;;;5058839;28;20095;-86
2022/12/14 11:59:20;;;;;;;6.20;2.28;;;;;;;;;;5059692;28;20451;-83
2022/12/14 12:01:46;;;;;;;3.30;2.70;;;;;;;;;;5059605;28;20184;-86
2022/12/14 12:04:15;;;;;;;10.05;2.97;;;;;;;;;;5059083;28;20053;-83
2022/12/14 12:06:41;;;;;;;3.88;3.17;;;;;;;;;;5054714;28;20033;-85
2022/12/14 12:09:29;;;;;;;9.35;6.53;;;;;;;;;;5063909;28;20432;-83
2022/12/14 12:11:55;;;;;;;4.80;3.20;;;;;;;;;;5060283;28;20480;-84
2022/12/14 12:14:50;;;;;;;4.90;4.22;;;;;;;;;;5060549;28;20027;-84
2022/12/14 12:17:32;;;;;;;9.57;5.30;;;;;;;;;;5053621;28;20036;-86
2022/12/14 12:19:58;;;;;;;9.27;4.15;;;;;;;;;;5061581;28;20388;-85
2022/12/14 12:22:24;;;;;;;6.28;3.75;;;;;;;;;;5066321;28;20112;-88
2022/12/14 12:24:57;;;;;;;4.55;3.47;;;;;;;;;;5056244;28;20422;-86
2022/12/14 12:27:25;;;;;;;5.95;4.20;;;;;;;;;;5057173;28;20087;-85
2022/12/14 12:30:03;;;;;;;12.43;4.10;;;;;;;;;;5061346;28;20037;-85
2022/12/14 12:32:36;;;;;;;5.78;3.63;;;;;;;;;;5058501;28;20016;-84
2022/12/14 12:35:43;;;;;;;8.60;2.08;;;;;;;;;;5058925;28;20107;-84
2022/12/14 12:38:24;;;;;;;3.13;2.72;;;;;;;;;;5062227;28;20442;-85
2022/12/14 12:41:01;;;;;;;4.50;2.97;;;;;;;;;;5056316;28;20083;-87
2022/12/14 12:43:40;;;;;;;5.22;3.47;;;;;;;;;;5054254;28;20052;-84
2022/12/14 12:46:28;;;;;;;2.22;2.05;;;;;;;;;;5056910;28;20113;-85
2022/12/14 12:49:03;;;;;;;3.65;2.70;;;;;;;;;;5063114;28;20078;-84
2022/12/14 12:51:47;;;;;;;2.80;2.20;;;;;;;;;;5058393;28;20050;-85
2022/12/14 12:54:32;;;;;;;4.68;2.75;;;;;;;;;;5061387;28;20079;-84
2022/12/14 12:56:59;;;;;;;4.95;3.40;;;;;;;;;;5054624;28;20036;-85
2022/12/14 12:59:41;;;;;;;5.93;2.85;;;;;;;;;;5054753;28;20032;-81
2022/12/14 13:02:31;;;;;;;5.45;3.17;;;;;;;;;;5058533;28;20033;-86
2022/12/14 13:05:00;;;;;;;8.23;3.70;;;;;;;;;;5065508;28;20063;-86
2022/12/14 13:08:48;;;;;;;;;;;;;;;;;;;;;
2022/12/14 13:10:46;;;;;;;3.28;2.20;;;;;;;;;;5057837;28;20119;-85
2022/12/14 13:13:51;;;;;;;;;;;;;;;;;;;;;
2022/12/14 13:16:32;;;;;;;4.22;2.92;;;;;;;;;;5056581;28;20043;-83
2022/12/14 13:19:27;;;;;;;5.97;3.35;;;;;;;;;;5052120;28;20044;-84
2022/12/14 13:21:52;;;;;;;5.70;3.13;;;;;;;;;;5040531;28;20029;-81
2022/12/14 13:24:20;;;;;;;8.43;4.38;;;;;;;;;;5059285;28;20506;-83
2022/12/14 13:27:20;;;;;;;3.53;3.15;;;;;;;;;;5055356;28;20430;-84
2022/12/14 13:29:48;;;;;;;6.00;2.25;;;;;;;;;;5054295;28;20024;-82
2022/12/14 13:32:44;;;;;;;2.45;2.20;;;;;;;;;;5054954;28;20032;-83
2022/12/14 13:35:24;;;;;;;6.20;2.63;;;;;;;;;;5057096;28;20098;-83
2022/12/14 13:38:28;;;;;;;2.13;1.90;;;;;;;;;;5057603;28;20021;-84
2022/12/14 13:41:31;;;;;;;2.92;2.50;;;;;;;;;;5062728;28;20384;-84
2022/12/14 13:44:20;;;;;;;3.85;2.70;;;;;;;;;;5061440;28;20029;-83
2022/12/14 13:46:56;;;;;;;8.00;3.60;;;;;;;;;;5054693;28;20365;-84
2022/12/14 13:49:23;;;;;;;4.03;2.45;;;;;;;;;;5058464;28;20024;-83
2022/12/14 13:51:49;;;;;;;2.83;1.98;;;;;;;;;;5060361;28;20035;-83
2022/12/14 13:54:38;;;;;;;3.75;2.28;;;;;;;;;;5065148;28;20044;-84
2022/12/14 13:57:22;;;;;;;2.87;2.60;;;;;;;;;;5059329;28;20132;-83
2022/12/14 13:59:49;;;;;;;3.72;2.28;;;;;;;;;;5062228;28;20027;-83
2022/12/14 14:02:30;;;;;;;3.30;2.78;;;;;;;;;;5064082;28;20035;-83
2022/12/14 14:05:14;;;;;;;2.65;2.05;;;;;;;;;;5065075;28;20020;-84
2022/12/14 14:08:01;;;;;;;3.88;2.13;;;;;;;;;;5062136;28;20540;-83
2022/12/14 14:10:31;;;;;;;4.47;2.25;;;;;;;;;;5064452;28;20016;-83
2022/12/14 14:12:57;;;;;;;;;;;;;;;;;;5056539;28;20025;-83
2022/12/14 14:15:33;;;;;;;2.60;1.85;;;;;;;;;;5058400;28;19919;-84
2022/12/14 14:18:12;;;;;;;4.68;2.40;;;;;;;;;;5059338;28;20095;-84
2022/12/14 14:20:50;;;;;;;3.17;2.85;;;;;;;;;;5056615;28;20035;-84
2022/12/14 14:23:15;;;;;;;2.63;2.42;;;;;;;;;;5056679;28;20028;-84
2022/12/14 14:26:02;;;;;;;3.30;2.90;;;;;;;;;;5065788;28;20063;-85
2022/12/14 14:28:29;;;;;;;3.55;2.70;;;;;;;;;;5055566;28;20385;-85
2022/12/14 14:30:57;;;;;;;4.18;3.60;;;;;;;;;;5052047;28;20029;-84
2022/12/14 14:33:41;;;;;;;2.58;2.30;;;;;;;;;;5060745;28;20090;-84
2022/12/14 14:36:32;;;;;;;6.30;3.60;;;;;;;;;;5055310;28;20029;-84
2022/12/14 14:39:34;;;;;;;3.95;2.72;;;;;;;;;;5053898;28;20499;-83
2022/12/14 14:42:03;;;;;;;7.03;3.55;;;;;;;;;;5061646;28;20036;-84
2022/12/14 14:45:00;;;;;;;5.03;3.95;;;;;;;;;;5063158;28;20108;-85
2022/12/14 14:47:35;;;;;;;6.93;4.47;;;;;;;;;;5054695;28;20040;-85
2022/12/14 14:50:30;;;;;;;6.20;4.18;;;;;;;;;;5064045;28;20033;-86
2022/12/14 14:53:00;;;;;;;9.00;4.40;;;;;;;;;;5058941;28;20049;-84
2022/12/14 14:55:30;;;;;;;7.60;4.70;;;;;;;;;;5059339;28;20093;-87
2022/12/14 14:58:08;;;;;;;4.68;4.03;;;;;;;;;;5063452;28;20033;-85
2022/12/14 15:00:57;;;;;;;9.32;5.30;;;;;;;;;;5058593;28;20685;-85
2022/12/14 15:03:34;;;;;;;8.10;5.45;;;;;;;;;;5064042;28;20016;-85
2022/12/14 15:06:00;;;;;;;6.15;4.75;;;;;;;;;;5060076;28;20029;-86
2022/12/14 15:08:39;;;;;;;9.07;6.63;;;;;;;;;;5057985;28;20029;-86
2022/12/14 15:11:13;;;;;;;5.43;4.13;;;;;;;;;;5054268;28;20031;-87
2022/12/14 15:13:58;;;;;;;4.97;3.40;;;;;;;;;;5055786;28;20762;-83
2022/12/14 15:16:30;;;;;;;9.77;5.90;;;;;;;;;;5056735;28;20016;-84
2022/12/14 15:19:19;;;;;;;10.10;5.88;;;;;;;;;;5059428;28;20024;-85
2022/12/14 15:21:48;;;;;;;7.50;6.20;;;;;;;;;;5065298;28;20028;-86
2022/12/14 15:24:14;;;;;;;8.98;6.13;;;;;;;;;;5056163;28;20525;-85
2022/12/14 15:26:39;;;;;;;9.27;6.20;;;;;;;;;;5056129;28;20029;-85
2022/12/14 15:29:05;;;;;;;4.80;4.20;;;;;;;;;;5060390;28;20028;-85
2022/12/14 15:31:38;;;;;;;6.57;4.05;;;;;;;;;;5062528;28;20029;-84
2022/12/14 15:34:04;;;;;;;5.55;3.60;;;;;;;;;;5061935;28;20047;-83
2022/12/14 15:36:33;;;;;;;1.98;1.77;;;;;;;;;;5058818;28;20104;-85
2022/12/14 15:38:58;;;;;;;5.85;3.33;;;;;;;;;;5060510;28;20549;-84
2022/12/14 15:41:26;;;;;;;8.05;3.90;;;;;;;;;;5059033;28;20045;-85
2022/12/14 15:43:53;;;;;;;4.63;2.75;;;;;;;;;;5060843;28;20024;-85
2022/12/14 15:46:32;;;;;;;4.13;2.67;;;;;;;;;;5060955;28;20048;-85
2022/12/14 15:48:59;;;;;;;;;;;;;;;;;;5060771;28;20422;-84
2022/12/14 15:51:34;;;;;;;2.08;1.65;;;;;;;;;;5066058;28;19951;-86
2022/12/14 15:54:02;;;;;;;4.97;1.98;;;;;;;;;;5061538;28;20020;-85
2022/12/14 15:56:55;;;;;;;6.28;3.97;;;;;;;;;;5057410;28;20060;-86
2022/12/14 15:59:25;;;;;;;6.85;4.47;;;;;;;;;;5064619;28;20025;-85
2022/12/14 16:02:15;;;;;;;4.70;3.35;;;;;;;;;;5058474;28;20036;-86
2022/12/14 16:04:41;;;;;;;6.63;3.92;;;;;;;;;;5060872;28;20106;-85
2022/12/14 16:07:27;;;;;;;5.32;3.88;;;;;;;;;;5059199;28;20048;-85
2022/12/14 16:09:57;;;;;;;6.90;5.55;;;;;;;;;;5063845;28;20115;-85
2022/12/14 16:12:29;;;;;;;6.97;5.85;;;;;;;;;;5057823;28;20052;-85
2022/12/14 16:14:57;;;;;;;8.93;5.65;;;;;;;;;;5061737;28;20029;-85
2022/12/14 16:17:34;;;;;;;8.77;6.80;;;;;;;;;;5059018;28;20016;-84
2022/12/14 16:20:07;;;;;;;10.65;6.38;;;;;;;;;;5059011;28;20036;-85
2022/12/14 16:22:36;;;;;;;7.35;5.78;;;;;;;;;;5065966;28;20098;-85
2022/12/14 16:25:06;;;;;;;8.07;5.35;;;;;;;;;;5055586;28;20160;-87
2022/12/14 16:27:36;;;;;;;4.18;3.63;;;;;;;;;;5056076;28;20059;-85
2022/12/14 16:30:17;;;;;;;2.40;1.67;;;;;;;;;;5061518;28;20115;-86
2022/12/14 16:32:48;;;;;;;5.55;3.55;;;;;;;;;;5052032;28;20052;-88
2022/12/14 16:35:20;;;;;;;10.65;3.53;;;;;;;;;;5062497;28;20029;-87
2022/12/14 16:37:50;;;;;;;9.40;3.80;;;;;;;;;;5059539;28;20099;-86
2022/12/14 16:40:24;;;;;;;7.75;4.88;;;;;;;;;;5058765;28;20816;-85
2022/12/14 16:42:50;;;;;;;5.20;4.05;;;;;;;;;;5057263;28;20422;-86
2022/12/14 16:45:44;;;;;;;7.38;5.22;;;;;;;;;;5059200;28;20103;-85
2022/12/14 16:48:17;;;;;;;7.15;4.05;;;;;;;;;;5049321;28;20500;-88
2022/12/14 16:50:42;;;;;;;7.13;4.80;;;;;;;;;;5054141;28;20029;-86
2022/12/14 16:53:20;;;;;;;7.97;4.45;;;;;;;;;;5056551;28;20095;-87
2022/12/14 16:56:19;;;;;;;7.07;4.80;;;;;;;;;;5058262;28;20053;-85
2022/12/14 16:58:53;;;;;;;9.50;6.55;;;;;;;;;;5056803;28;20037;-86
2022/12/14 17:01:19;;;;;;;5.05;3.60;;;;;;;;;;5056473;28;20037;-86
2022/12/14 17:03:58;;;;;;;4.00;3.63;;;;;;;;;;5058100;28;20408;-87
2022/12/14 17:06:37;;;;;;;11.18;4.22;;;;;;;;;;5062117;28;20032;-85
2022/12/14 17:09:04;;;;;;;17.27;3.87;;;;;;;;;;5056337;28;20058;-85
2022/12/14 17:11:30;;;;;;;6.82;3.53;;;;;;;;;;5061074;28;20021;-85
2022/12/14 17:13:55;;;;;;;8.25;3.70;;;;;;;;;;5062514;28;20036;-85
2022/12/14 17:16:21;;;;;;;4.38;2.90;;;;;;;;;;5057882;28;20017;-85
2022/12/14 17:18:47;;;;;;;5.15;3.67;;;;;;;;;;5059420;28;20053;-84
2022/12/14 17:21:17;;;;;;;6.18;4.80;;;;;;;;;;5065225;28;20109;-85
2022/12/14 17:23:44;;;;;;;6.50;4.60;;;;;;;;;;5059536;28;20151;-84
2022/12/14 17:26:19;;;;;;;4.72;3.67;;;;;;;;;;5053823;28;20021;-84
2022/12/14 17:28:44;;;;;;;9.98;3.33;;;;;;;;;;5059856;28;20163;-85
2022/12/14 17:31:10;;;;;;;2.17;1.95;;;;;;;;;;5053413;28;20103;-85
2022/12/14 17:33:36;;;;;;;3.63;2.75;;;;;;;;;;5057785;28;20095;-86
2022/12/14 17:36:01;;;;;;;7.03;3.40;;;;;;;;;;5060073;28;20107;-86
2022/12/14 17:38:26;;;;;;;3.90;2.92;;;;;;;;;;5057730;28;20025;-86
2022/12/14 17:40:55;;;;;;;6.20;3.10;;;;;;;;;;5060746;28;20033;-87
2022/12/14 17:43:24;;;;;;;3.55;2.95;;;;;;;;;;5058730;28;20915;-86
2022/12/14 17:45:49;;;;;;;2.53;2.10;;;;;;;;;;5058755;28;20025;-86
2022/12/14 17:48:16;;;;;;;5.05;2.88;;;;;;;;;;5059798;28;20024;-85
2022/12/14 17:50:44;;;;;;;3.63;3.00;;;;;;;;;;5055602;28;20491;-87
2022/12/14 17:53:13;;;;;;;6.78;3.55;;;;;;;;;;5054734;28;20032;-85
2022/12/14 17:55:40;;;;;;;4.38;2.22;;;;;;;;;;5057765;28;20071;-86
2022/12/14 17:58:05;;;;;;;3.17;2.75;;;;;;;;;;5058154;28;20041;-85
2022/12/14 18:03:17;;;;;;;8.18;3.03;;;;;;;;;;5060585;28;20108;-86
2022/12/14 18:05:44;;;;;;;6.18;3.22;;;;;;;;;;5062105;28;20020;-84
2022/12/14 18:08:10;;;;;;;4.60;3.45;;;;;;;;;;5060583;28;20028;-85
2022/12/14 18:10:36;;;;;;;3.30;2.83;;;;;;;;;;5059205;28;20032;-84
2022/12/14 18:13:02;;;;;;;6.38;3.20;;;;;;;;;;5056032;28;20372;-84
2022/12/14 18:15:34;;;;;;;4.03;2.58;;;;;;;;;;5054774;28;20101;-85
2022/12/14 18:17:59;;;;;;;10.13;3.83;;;;;;;;;;5076350;28;20028;-85
2022/12/14 18:20:25;;;;;;;4.88;3.35;;;;;;;;;;5064649;28;20029;-85
2022/12/14 18:22:51;;;;;;;3.05;2.70;;;;;;;;;;5063440;28;20112;-86
2022/12/14 18:25:40;;;;;;;3.60;2.97;;;;;;;;;;5058586;28;20426;-87
2022/12/14 18:28:06;;;;;;;4.32;3.45;;;;;;;;;;5062646;28;20079;-85
2022/12/14 18:30:34;;;;;;;3.40;2.40;;;;;;;;;;5068980;28;20073;-85
2022/12/14 18:33:00;;;;;;;5.75;3.75;;;;;;;;;;5065560;28;20032;-85
2022/12/14 18:35:30;;;;;;;8.60;4.65;;;;;;;;;;5062545;28;20034;-86
2022/12/14 18:37:55;;;;;;;;;;;;;;;;;;5066379;28;20044;-86
2022/12/14 18:40:25;;;;;;;7.75;5.28;;;;;;;;;;5066787;28;19912;-84
2022/12/14 18:42:51;;;;;;;8.55;7.65;;;;;;;;;;5063110;28;20476;-84
2022/12/14 18:45:20;;;;;;;4.95;3.42;;;;;;;;;;5058306;28;20025;-82
2022/12/14 18:47:46;;;;;;;5.93;3.50;;;;;;;;;;5060781;28;20032;-83
2022/12/14 18:50:13;;;;;;;7.43;5.38;;;;;;;;;;5066770;28;20103;-83
2022/12/14 18:52:39;;;;;;;6.55;3.85;;;;;;;;;;5062712;28;20052;-82
2022/12/14 18:55:13;;;;;;;10.13;5.68;;;;;;;;;;5060642;28;20064;-82
2022/12/14 18:57:38;;;;;;;7.97;5.07;;;;;;;;;;5054940;28;20036;-82
2022/12/14 19:00:04;;;;;;;7.30;4.90;;;;;;;;;;5057542;28;20147;-82
2022/12/14 19:02:30;;;;;;;10.30;6.22;;;;;;;;;;5060134;28;20056;-83
2022/12/14 19:04:55;;;;;;;5.93;4.55;;;;;;;;;;5059777;28;20048;-82
2022/12/14 19:07:21;;;;;;;5.65;5.05;;;;;;;;;;5067795;28;20123;-82
2022/12/14 19:09:46;;;;;;;5.32;3.70;;;;;;;;;;5054623;28;20021;-84
2022/12/14 19:12:12;;;;;;;18.98;6.22;;;;;;;;;;5064375;28;20031;-84
2022/12/14 19:14:39;;;;;;;7.85;5.03;;;;;;;;;;5063736;28;20021;-84
2022/12/14 19:17:04;;;;;;;6.53;4.45;;;;;;;;;;5062316;28;20040;-85
2022/12/14 19:19:29;;;;;;;7.03;5.22;;;;;;;;;;5054153;28;20025;-84